Stanley, Idaho
Current Conditions -  °F | °C
As of 12:55 AM on Tuesday 21 Oct 2014 (Local Time) from KLLJ Reporting Station
Few Clouds Few Clouds  
Wind Chill: 50°   Ceiling: Unl
Heat Index: 50°   Visibility: 10mi
Dew Point: 41°   Wind: 6mph
Humidity: 71%   Direction: 300°WNW
Pressure: 29.81"   Gusts: NA
Location:  44.21°N, 114.95°W
Report Text: KLLJ 210655Z AUTO 30005KT 10SM FEW120 10/05 A2981 RMK AO2 SLP056 T01000050 402390000
Loading
Personal Weather Stations






























Interactive Weather Map
Tropical Storm Tracking
New forecast layout! Learn more

10-Day Weather Forecast

Advertisements
Track Severe Weather on mobile